CheckWX is a tool to help pilots better visualize weather data.  It is not intended as a substitute for an official pre-flight weather briefing.

16:59:58 UTC

KSTL METAR
St Louis Lambert International Airport
St Louis, Missouri, USA
Current

1 hour ago

KSTL 191551Z 17004KT 10SM FEW050 FEW250 29/17 A3008 RMK AO2 SLP174 T02940172 $
Observed
Sep-19 @ 15:51 UTC
Wind
  • 170° at 4 KTS
Visibility
10 SM
Flight Rules
VFR
Cloud Levels
  • Few at 5,000' AGL
  • Few at 25,000' AGL
Temperature
29°C / 84°F
Dewpoint
17°C / 63°F
Heat Index
29°C / 85°F
Humidity
48%
Altimeter
30.08" Hg
Pressure
1018.62 hPa
Previous

2 hours ago

KSTL 191451Z COR 00000KT 10SM FEW250 28/16 A3009 RMK AO2 SLP176 T02780161 51018 $
Observed
Sep-19 @ 14:51 UTC
Visibility
10 SM
Flight Rules
VFR
Cloud Levels
  • Few at 25,000' AGL
Temperature
28°C / 82°F
Dewpoint
16°C / 61°F
Heat Index
28°C / 82°F
Humidity
48%
Altimeter
30.09" Hg
Pressure
1018.92 hPa
Previous

3 hours ago

KSTL 191351Z 15004KT 10SM FEW100 FEW250 25/17 A3007 RMK AO2 SLP172 T02500167 $
Observed
Sep-19 @ 13:51 UTC
Wind
  • 150° at 4 KTS
Visibility
10 SM
Flight Rules
VFR
Cloud Levels
  • Few at 10,000' AGL
  • Few at 25,000' AGL
Temperature
25°C / 77°F
Dewpoint
17°C / 63°F
Humidity
61%
Altimeter
30.07" Hg
Pressure
1018.32 hPa